Montreal / St-Lazare Airport

METAR CYUL TAF CYUL
-26 °C
°C
-
°C
33m
Idade
03:33:07
LT
02:33
UTC
0 ft

1.000

2.000

3.000

4.000

5.000

SCT 4.000
BKN 5.000
VFR
<?= Yii::t('app', 'Wind direction') ?> <?= Yii::t('app', 'of'); ?>
290°
07:12
Nascer do sol
42%
Humidade
Tesoura de Vento
Fechado/Neve
Alcance visual RWY
Condição RWY
Vert. visibilidade
Min. visibilidade
CAVOK
Tendência
Correcção
Relatório especial
30,37 inHg
QNH
METAR CYUL 040200Z 29019G25KT 15SM SCT040 BKN050 M26/M35 A3037 RMK SC3SC2 SLP292
Nuvens quebradas
19 kt
19 kt
21:00
VFR
10 kt
22:00
VFR
10 kt
23:00
VFR
10 kt
00:00
VFR
10 kt
01:00
VFR
10 kt
02:00
VFR
10 kt
03:00
VFR
10 kt
15 mi
Visibilidade
5.000 ft
Tecto
19-25 kt
Vento
metar-taf.com/CST3

Metar-Taf.com

Decodificador visual

Nós e terceiros acompanhamos seu comportamento na internet em nosso site com cookies. Se você continuar, nós assumimos que você concorda com nosso política de cookies.